Time;durP1;ratioP1;P1;durP2;ratioP2;P2;SDS_P1;SDS_P2;PMS_P1;PMS_P2;Temp;Humidity;BMP_temperature;BMP_pressure;BME280_temperature;BME280_humidity;BME280_pressure;Samples;Min_cycle;Max_cycle;Signal;HPM_P1;HPM_P2
2022/11/14 00:00:11;;;;;;;43.33;25.50;;;5.90;99.90;;;;;;5044385;28;20049;-69
2022/11/14 00:02:38;;;;;;;36.40;17.75;;;5.90;99.90;;;;;;5044592;28;20045;-69
2022/11/14 00:05:05;;;;;;;60.08;12.73;;;6.00;99.90;;;;;;5046724;28;20051;-70
2022/11/14 00:07:32;;;;;;;38.97;10.15;;;6.00;99.90;;;;;;5050832;28;20123;-69
2022/11/14 00:09:58;;;;;;;35.95;11.32;;;6.00;99.90;;;;;;5049572;28;20044;-70
2022/11/14 00:12:24;;;;;;;24.30;10.60;;;5.90;99.90;;;;;;5048150;28;20044;-70
2022/11/14 00:14:50;;;;;;;39.80;12.00;;;5.90;99.90;;;;;;5037776;28;20048;-68
2022/11/14 00:17:16;;;;;;;47.15;11.43;;;6.00;99.90;;;;;;5054031;28;20033;-69
2022/11/14 00:19:41;;;;;;;36.63;11.60;;;6.00;99.90;;;;;;5039771;28;20121;-68
2022/11/14 00:22:07;;;;;;;43.83;10.65;;;6.00;99.90;;;;;;5050806;28;20036;-68
2022/11/14 00:24:32;;;;;;;76.03;10.30;;;6.10;99.90;;;;;;5051408;28;20111;-68
2022/11/14 00:26:58;;;;;;;60.38;10.20;;;6.10;99.90;;;;;;5051229;28;20075;-68
2022/11/14 00:29:23;;;;;;;32.65;9.02;;;6.10;99.90;;;;;;5051560;28;20689;-67
2022/11/14 00:31:49;;;;;;;70.03;10.43;;;6.00;99.90;;;;;;5054023;28;20064;-68
2022/11/14 00:34:14;;;;;;;51.58;9.40;;;6.00;99.90;;;;;;5033758;28;20037;-71
2022/11/14 00:36:40;;;;;;;28.35;9.63;;;6.00;99.90;;;;;;5052154;28;20052;-69
2022/11/14 00:39:06;;;;;;;57.78;10.18;;;6.00;99.90;;;;;;5053131;28;20036;-69
2022/11/14 00:41:31;;;;;;;32.95;9.75;;;6.00;99.90;;;;;;5051729;28;20497;-71
2022/11/14 00:43:57;;;;;;;33.00;9.07;;;6.10;99.90;;;;;;5056339;28;20031;-71
2022/11/14 00:46:22;;;;;;;36.95;9.95;;;6.10;99.90;;;;;;5047370;28;20037;-69
2022/11/14 00:48:48;;;;;;;35.22;9.02;;;6.10;99.90;;;;;;5045568;28;20573;-71
2022/11/14 00:51:13;;;;;;;52.70;9.00;;;6.20;99.90;;;;;;5037211;28;24016;-71
2022/11/14 00:53:39;;;;;;;52.13;8.57;;;6.20;99.90;;;;;;5041172;28;21220;-72
2022/11/14 00:56:05;;;;;;;31.73;7.78;;;6.20;99.90;;;;;;5039835;28;20097;-72
2022/11/14 00:58:31;;;;;;;49.03;10.00;;;6.30;99.90;;;;;;5041188;28;20258;-72
2022/11/14 01:00:57;;;;;;;31.40;8.70;;;6.30;99.90;;;;;;5043572;28;20495;-71
2022/11/14 01:03:22;;;;;;;14.82;8.57;;;6.30;99.90;;;;;;5042881;28;20064;-71
2022/11/14 01:05:50;;;;;;;20.52;8.55;;;6.30;99.90;;;;;;5042860;28;20048;-71
2022/11/14 01:08:17;;;;;;;18.08;9.57;;;6.40;99.90;;;;;;5037011;28;20140;-72
2022/11/14 01:10:46;;;;;;;24.65;8.85;;;6.40;99.90;;;;;;5034267;28;20040;-71
2022/11/14 01:13:12;;;;;;;51.97;8.85;;;6.40;99.90;;;;;;5031852;28;20784;-72
2022/11/14 01:15:40;;;;;;;28.80;8.55;;;6.50;99.90;;;;;;5049848;28;20029;-72
2022/11/14 01:18:06;;;;;;;25.92;8.95;;;6.50;99.90;;;;;;5033063;28;20037;-72
2022/11/14 01:20:32;;;;;;;39.83;9.30;;;6.50;99.90;;;;;;5036752;28;20097;-71
2022/11/14 01:22:58;;;;;;;29.38;10.10;;;6.50;99.90;;;;;;5038996;28;20048;-72
2022/11/14 01:25:24;;;;;;;45.33;9.70;;;6.50;99.90;;;;;;5038809;28;20199;-72
2022/11/14 01:27:50;;;;;;;31.35;9.05;;;6.50;99.90;;;;;;5039385;28;20040;-72
2022/11/14 01:30:15;;;;;;;42.83;10.23;;;6.50;99.90;;;;;;5036020;28;20079;-72
2022/11/14 01:32:41;;;;;;;34.60;9.52;;;6.50;99.90;;;;;;5030694;28;20048;-72
2022/11/14 01:35:07;;;;;;;19.75;10.25;;;6.50;99.90;;;;;;5003942;28;20043;-72
2022/11/14 01:37:32;;;;;;;34.55;9.15;;;6.50;99.90;;;;;;5037057;28;20044;-73
2022/11/14 01:39:58;;;;;;;23.33;9.55;;;6.60;99.90;;;;;;5030662;28;20036;-72
2022/11/14 01:42:23;;;;;;;17.60;10.60;;;6.50;99.90;;;;;;5036565;28;20043;-72
2022/11/14 01:44:51;;;;;;;17.00;10.38;;;6.60;99.90;;;;;;5036410;28;20179;-72
2022/11/14 01:47:27;;;;;;;20.50;10.65;;;6.60;99.90;;;;;;5037824;28;20052;-72
2022/11/14 01:49:56;;;;;;;55.33;9.77;;;6.50;99.90;;;;;;5036649;28;20052;-72
2022/11/14 01:52:24;;;;;;;32.60;8.68;;;6.50;99.90;;;;;;5034146;28;20045;-72
2022/11/14 01:54:57;;;;;;;22.20;8.90;;;6.50;99.90;;;;;;5041122;28;20037;-71
2022/11/14 01:57:28;;;;;;;26.17;8.23;;;6.50;99.90;;;;;;5039860;28;20033;-71
2022/11/14 01:59:56;;;;;;;16.85;8.18;;;6.50;99.90;;;;;;5019960;28;20037;-72
2022/11/14 02:02:24;;;;;;;14.65;8.57;;;6.60;99.90;;;;;;5033256;28;20037;-72
2022/11/14 02:04:57;;;;;;;22.77;8.65;;;6.60;99.90;;;;;;5043385;28;20033;-72
2022/11/14 02:07:26;;;;;;;34.72;9.63;;;6.60;99.90;;;;;;5040774;28;20056;-72
2022/11/14 02:09:52;;;;;;;30.38;16.15;;;6.60;99.90;;;;;;5041635;28;20037;-72
2022/11/14 02:12:19;;;;;;;18.05;8.35;;;6.60;99.90;;;;;;5041444;28;20040;-71
2022/11/14 02:14:47;;;;;;;12.48;8.43;;;6.60;99.90;;;;;;5045462;28;20024;-72
2022/11/14 02:17:14;;;;;;;16.30;9.27;;;6.60;99.90;;;;;;5039427;28;20052;-70
2022/11/14 02:19:52;;;;;;;20.00;9.05;;;6.60;99.90;;;;;;5038766;28;20367;-70
2022/11/14 02:22:18;;;;;;;11.05;8.23;;;6.70;99.90;;;;;;5046173;28;20405;-70
2022/11/14 02:24:44;;;;;;;25.98;8.52;;;6.70;99.90;;;;;;5045130;28;20027;-70
2022/11/14 02:27:11;;;;;;;15.55;9.05;;;6.70;99.90;;;;;;5045064;28;20044;-70
2022/11/14 02:29:37;;;;;;;14.85;8.98;;;6.70;99.90;;;;;;5041419;28;20044;-70
2022/11/14 02:32:03;;;;;;;19.17;9.43;;;6.70;99.90;;;;;;5046641;28;20481;-70
2022/11/14 02:34:29;;;;;;;18.75;9.57;;;6.70;99.90;;;;;;5044285;28;20044;-70
2022/11/14 02:36:54;;;;;;;33.95;9.75;;;6.70;99.90;;;;;;5044736;28;20040;-72
2022/11/14 02:39:20;;;;;;;17.55;8.68;;;6.70;99.90;;;;;;5047701;28;20033;-72
2022/11/14 02:41:46;;;;;;;26.73;8.63;;;6.70;99.90;;;;;;5046405;28;20266;-72
2022/11/14 02:44:11;;;;;;;29.23;11.18;;;6.60;99.90;;;;;;5040052;28;20037;-71
2022/11/14 02:46:37;;;;;;;36.20;11.25;;;6.60;99.90;;;;;;5042995;28;20197;-72
2022/11/14 02:49:03;;;;;;;36.10;10.40;;;6.50;99.90;;;;;;5041851;28;20032;-71
2022/11/14 02:51:28;;;;;;;12.55;10.13;;;6.50;99.90;;;;;;5037528;28;20481;-72
2022/11/14 02:53:54;;;;;;;21.35;9.75;;;6.40;99.90;;;;;;5041940;28;20045;-72
2022/11/14 02:56:19;;;;;;;33.78;10.68;;;6.40;99.90;;;;;;5042410;28;20191;-70
2022/11/14 02:58:45;;;;;;;32.75;10.05;;;6.40;99.90;;;;;;5047176;28;20048;-69
2022/11/14 03:01:10;;;;;;;35.97;10.38;;;6.40;99.90;;;;;;5024412;28;20274;-70
2022/11/14 03:03:36;;;;;;;35.40;10.50;;;6.40;99.90;;;;;;5044426;28;20057;-70
2022/11/14 03:06:03;;;;;;;33.10;10.07;;;6.30;99.90;;;;;;5043788;28;20519;-70
2022/11/14 03:08:29;;;;;;;34.22;10.45;;;6.30;99.90;;;;;;5043069;28;20036;-70
2022/11/14 03:10:55;;;;;;;24.45;9.52;;;6.30;99.90;;;;;;5042158;28;20118;-70
2022/11/14 03:13:21;;;;;;;23.95;9.48;;;6.40;99.90;;;;;;5044424;28;20037;-72
2022/11/14 03:15:47;;;;;;;16.27;10.07;;;6.40;99.90;;;;;;5047546;28;20036;-72
2022/11/14 03:18:13;;;;;;;26.63;11.02;;;6.40;99.90;;;;;;5040571;28;20037;-72
2022/11/14 03:20:39;;;;;;;23.13;10.75;;;6.40;99.90;;;;;;5043968;28;20429;-71
2022/11/14 03:23:05;;;;;;;40.05;11.55;;;6.40;99.90;;;;;;5045043;28;20113;-72
2022/11/14 03:25:30;;;;;;;42.13;11.27;;;6.40;99.90;;;;;;5044130;28;20211;-72
2022/11/14 03:27:56;;;;;;;53.05;10.75;;;6.40;99.90;;;;;;5044843;28;20045;-72
2022/11/14 03:30:22;;;;;;;39.15;10.63;;;6.40;99.90;;;;;;5044708;28;20100;-72
2022/11/14 03:32:47;;;;;;;52.70;10.13;;;6.40;99.90;;;;;;5062344;28;20040;-70
2022/11/14 03:35:13;;;;;;;41.00;10.65;;;6.40;99.90;;;;;;5042126;28;20043;-70
2022/11/14 03:37:38;;;;;;;41.60;10.48;;;6.30;99.90;;;;;;5042071;28;20033;-70
2022/11/14 03:40:05;;;;;;;49.83;9.88;;;6.30;99.90;;;;;;5045841;28;20107;-70
2022/11/14 03:42:34;;;;;;;33.13;9.68;;;6.40;99.90;;;;;;5045225;28;20742;-70
2022/11/14 03:45:00;;;;;;;41.38;10.68;;;6.30;99.90;;;;;;5043507;28;20036;-69
2022/11/14 03:47:25;;;;;;;46.92;10.00;;;6.30;99.90;;;;;;5046425;28;20036;-71
2022/11/14 03:49:51;;;;;;;62.35;10.10;;;6.20;99.90;;;;;;5040786;28;20048;-70
2022/11/14 03:52:16;;;;;;;30.48;9.98;;;6.10;99.90;;;;;;5039148;28;20075;-70
2022/11/14 03:54:42;;;;;;;32.83;10.07;;;6.10;99.90;;;;;;5046830;28;20043;-70
2022/11/14 03:57:07;;;;;;;42.88;10.10;;;6.10;99.90;;;;;;5039760;28;20558;-70
2022/11/14 03:59:33;;;;;;;41.03;9.63;;;6.10;99.90;;;;;;5040460;28;20401;-70
2022/11/14 04:01:59;;;;;;;28.65;9.18;;;6.10;99.90;;;;;;5043807;28;20075;-70
2022/11/14 04:04:24;;;;;;;43.40;9.35;;;6.10;99.90;;;;;;5043727;28;20041;-70
2022/11/14 04:06:50;;;;;;;42.97;10.10;;;6.10;99.90;;;;;;5044535;28;20041;-70
2022/11/14 04:09:15;;;;;;;18.20;8.75;;;6.10;99.90;;;;;;5043609;28;20045;-70
2022/11/14 04:11:41;;;;;;;21.58;8.93;;;6.10;99.90;;;;;;5046771;28;20465;-70
2022/11/14 04:14:06;;;;;;;16.42;9.05;;;6.10;99.90;;;;;;5042433;28;20041;-70
2022/11/14 04:16:32;;;;;;;15.30;8.85;;;6.10;99.90;;;;;;5041235;28;20033;-70
2022/11/14 04:18:57;;;;;;;30.52;8.85;;;6.10;99.90;;;;;;5044158;28;20044;-71
2022/11/14 04:21:23;;;;;;;37.92;9.02;;;6.20;99.90;;;;;;5044897;28;20039;-70
2022/11/14 04:23:49;;;;;;;21.38;8.52;;;6.20;99.90;;;;;;5046546;28;20036;-70
2022/11/14 04:26:14;;;;;;;81.18;9.52;;;6.20;99.90;;;;;;5029720;28;20115;-70
2022/11/14 04:28:40;;;;;;;31.80;9.07;;;6.20;99.90;;;;;;5046043;28;20040;-69
2022/11/14 04:31:05;;;;;;;42.38;10.00;;;6.10;99.90;;;;;;5037789;28;20482;-70
2022/11/14 04:33:31;;;;;;;30.00;9.18;;;6.10;99.90;;;;;;5046046;28;20573;-70
2022/11/14 04:35:56;;;;;;;78.55;9.15;;;6.10;99.90;;;;;;5046178;28;20540;-70
2022/11/14 04:38:22;;;;;;;41.97;8.88;;;6.20;99.90;;;;;;5047633;28;20047;-70
2022/11/14 04:40:50;;;;;;;68.80;9.40;;;6.10;99.90;;;;;;5043603;28;20588;-70
2022/11/14 04:43:17;;;;;;;39.03;8.20;;;6.00;99.90;;;;;;5038251;28;20437;-70
2022/11/14 04:45:45;;;;;;;72.90;9.40;;;6.00;99.90;;;;;;5042037;28;20036;-70
2022/11/14 04:48:11;;;;;;;35.50;7.85;;;6.00;99.90;;;;;;5041550;28;20489;-69
2022/11/14 04:50:37;;;;;;;90.85;9.73;;;5.90;99.90;;;;;;5040241;28;22108;-70
2022/11/14 04:53:03;;;;;;;69.78;9.45;;;6.00;99.90;;;;;;5043631;28;20036;-70
2022/11/14 04:55:29;;;;;;;102.70;8.15;;;6.00;99.90;;;;;;5040018;28;20572;-70
2022/11/14 04:57:56;;;;;;;97.07;8.55;;;5.90;99.90;;;;;;5037894;28;20055;-70
2022/11/14 05:00:23;;;;;;;92.20;8.15;;;5.90;99.90;;;;;;5031247;28;20033;-70
2022/11/14 05:02:49;;;;;;;85.30;8.27;;;5.90;99.90;;;;;;5042413;28;20047;-69
2022/11/14 05:05:15;;;;;;;36.58;7.03;;;5.80;99.90;;;;;;5041352;28;20519;-70
2022/11/14 05:07:40;;;;;;;31.63;7.38;;;5.80;99.90;;;;;;5041549;28;20498;-70
2022/11/14 05:10:07;;;;;;;61.03;7.72;;;5.80;99.90;;;;;;5044653;28;20747;-69
2022/11/14 05:12:33;;;;;;;25.33;7.25;;;5.80;99.90;;;;;;5040064;28;20070;-70
2022/11/14 05:14:58;;;;;;;66.03;8.32;;;5.80;99.90;;;;;;5056432;28;20543;-70
2022/11/14 05:17:24;;;;;;;49.42;7.72;;;5.90;99.90;;;;;;5037888;28;20670;-70
2022/11/14 05:19:50;;;;;;;17.77;7.35;;;5.80;99.90;;;;;;5044512;28;20056;-70
2022/11/14 05:22:15;;;;;;;22.20;7.03;;;5.80;99.90;;;;;;5035865;28;20037;-70
2022/11/14 05:24:41;;;;;;;32.55;7.10;;;5.80;99.90;;;;;;5057317;28;20284;-70
2022/11/14 05:27:07;;;;;;;57.70;7.57;;;5.80;99.90;;;;;;5043630;28;20060;-71
2022/11/14 05:29:32;;;;;;;41.95;7.63;;;5.80;99.90;;;;;;5043209;28;20036;-70
2022/11/14 05:31:59;;;;;;;26.55;7.07;;;5.80;99.90;;;;;;5031969;28;20041;-70
2022/11/14 05:34:25;;;;;;;32.95;7.93;;;5.80;99.90;;;;;;5037671;28;20028;-70
2022/11/14 05:36:50;;;;;;;41.92;7.53;;;5.80;99.90;;;;;;5036650;28;20059;-70
2022/11/14 05:39:16;;;;;;;66.85;8.43;;;5.90;99.90;;;;;;5037772;28;20097;-70
2022/11/14 05:41:42;;;;;;;84.65;8.10;;;5.80;99.90;;;;;;5056863;28;20079;-70
2022/11/14 05:44:08;;;;;;;33.55;7.22;;;5.70;99.90;;;;;;5033910;28;20791;-70
2022/11/14 05:46:33;;;;;;;30.65;6.88;;;5.70;99.90;;;;;;5034573;28;20568;-71
2022/11/14 05:48:59;;;;;;;65.40;7.80;;;5.70;99.90;;;;;;5035465;28;20476;-69
2022/11/14 05:51:25;;;;;;;68.80;8.05;;;5.70;99.90;;;;;;5035061;28;20060;-70
2022/11/14 05:53:50;;;;;;;51.80;7.40;;;5.70;99.90;;;;;;5038844;28;20583;-69
2022/11/14 05:56:16;;;;;;;18.75;5.95;;;5.70;99.90;;;;;;5032832;28;20127;-70
2022/11/14 05:58:41;;;;;;;16.70;6.15;;;5.60;99.90;;;;;;5039114;28;20155;-70
2022/11/14 06:01:12;;;;;;;18.50;6.30;;;5.60;99.90;;;;;;5036701;28;20041;-70
2022/11/14 06:03:40;;;;;;;31.90;6.40;;;5.60;99.90;;;;;;5043088;28;20041;-70
2022/11/14 06:06:08;;;;;;;22.20;5.70;;;5.60;99.90;;;;;;5043775;28;20048;-70
2022/11/14 06:08:34;;;;;;;31.10;6.03;;;5.50;99.90;;;;;;5039235;28;20051;-69
2022/11/14 06:11:12;;;;;;;20.85;5.18;;;5.40;99.90;;;;;;5034882;28;20052;-70
2022/11/14 06:13:38;;;;;;;21.45;6.07;;;5.30;99.90;;;;;;5037625;28;20250;-69
2022/11/14 06:16:06;;;;;;;24.65;5.43;;;5.30;99.90;;;;;;5032741;28;20041;-69
2022/11/14 06:18:33;;;;;;;18.10;5.75;;;5.30;99.90;;;;;;5033968;28;20489;-69
2022/11/14 06:21:04;;;;;;;23.25;5.53;;;5.30;99.90;;;;;;5034468;28;20032;-70
2022/11/14 06:23:30;;;;;;;31.88;5.82;;;5.30;99.90;;;;;;5034895;28;20198;-70
2022/11/14 06:26:04;;;;;;;37.65;5.55;;;5.30;99.90;;;;;;5036554;28;20044;-70
2022/11/14 06:28:30;;;;;;;33.08;6.10;;;5.30;99.90;;;;;;5036294;28;20151;-69
2022/11/14 06:31:00;;;;;;;44.00;6.32;;;5.20;99.90;;;;;;5037988;28;20040;-70
2022/11/14 06:33:27;;;;;;;28.30;5.82;;;5.20;99.90;;;;;;5036544;28;20205;-69
2022/11/14 06:36:00;;;;;;;53.67;6.20;;;5.20;99.90;;;;;;5048535;28;20029;-69
2022/11/14 06:38:29;;;;;;;36.65;6.45;;;5.20;99.90;;;;;;5042573;28;20119;-69
2022/11/14 06:41:02;;;;;;;28.05;7.00;;;5.30;99.90;;;;;;5039320;28;20032;-69
2022/11/14 06:43:27;;;;;;;45.72;6.50;;;5.30;99.90;;;;;;5042695;28;20040;-69
2022/11/14 06:45:54;;;;;;;51.45;6.47;;;5.30;99.90;;;;;;5045534;28;20036;-69
2022/11/14 06:48:20;;;;;;;58.38;6.57;;;5.30;99.90;;;;;;5034906;28;20036;-72
2022/11/14 06:50:55;;;;;;;44.15;6.68;;;5.20;99.90;;;;;;5026363;28;20041;-70
2022/11/14 06:53:22;;;;;;;49.28;6.28;;;5.20;99.90;;;;;;5030008;28;20477;-69
2022/11/14 06:56:02;;;;;;;43.70;6.70;;;5.20;99.90;;;;;;5039975;28;20048;-69
2022/11/14 06:58:37;;;;;;;21.83;6.63;;;5.30;99.90;;;;;;5038386;28;20855;-70
2022/11/14 07:01:24;;;;;;;52.55;7.07;;;5.30;99.90;;;;;;5019487;28;20069;-70
2022/11/14 07:03:51;;;;;;;32.55;6.35;;;5.30;99.90;;;;;;5039930;28;20186;-70
2022/11/14 07:06:25;;;;;;;26.02;6.80;;;5.30;99.90;;;;;;5023721;28;20136;-70
2022/11/14 07:08:51;;;;;;;61.20;7.40;;;5.30;99.90;;;;;;5014092;28;20043;-70
2022/11/14 07:11:24;;;;;;;58.53;7.38;;;5.30;99.90;;;;;;5019328;28;20041;-70
2022/11/14 07:13:53;;;;;;;32.05;7.50;;;5.40;99.90;;;;;;5037928;28;20052;-69
2022/11/14 07:16:22;;;;;;;13.40;6.95;;;5.40;99.90;;;;;;5033252;28;20115;-70
2022/11/14 07:18:48;;;;;;;19.25;7.18;;;5.50;99.90;;;;;;5033961;28;20090;-70
2022/11/14 07:21:14;;;;;;;29.30;7.90;;;5.60;99.90;;;;;;5032814;28;20026;-70
2022/11/14 07:23:40;;;;;;;23.63;7.68;;;5.60;99.90;;;;;;5030833;28;20057;-70
2022/11/14 07:26:09;;;;;;;60.35;8.10;;;5.70;99.90;;;;;;5047220;28;20398;-69
2022/11/14 07:28:36;;;;;;;48.17;8.00;;;5.70;99.90;;;;;;5033749;28;20107;-70
2022/11/14 07:31:03;;;;;;;18.50;8.15;;;5.60;99.90;;;;;;5030814;28;20138;-69
2022/11/14 07:33:29;;;;;;;29.13;8.23;;;5.70;99.90;;;;;;5031443;28;20037;-69
2022/11/14 07:35:55;;;;;;;52.97;9.32;;;5.70;99.90;;;;;;5048625;28;20596;-69
2022/11/14 07:38:20;;;;;;;37.35;8.95;;;5.70;99.90;;;;;;5031527;28;20040;-70
2022/11/14 07:41:00;;;;;;;50.10;9.10;;;5.70;99.90;;;;;;5033764;28;20048;-70
2022/11/14 07:43:26;;;;;;;31.05;9.65;;;5.70;99.90;;;;;;5037581;28;20077;-70
2022/11/14 07:45:52;;;;;;;24.42;9.25;;;5.70;99.90;;;;;;5032872;28;20032;-70
2022/11/14 07:48:17;;;;;;;22.10;9.95;;;5.80;99.90;;;;;;5033986;28;20068;-70
2022/11/14 07:50:43;;;;;;;62.22;10.15;;;5.90;99.90;;;;;;5032317;28;20037;-70
2022/11/14 07:53:09;;;;;;;110.72;11.35;;;5.90;99.90;;;;;;5032389;28;20036;-69
2022/11/14 07:55:35;;;;;;;68.10;10.48;;;5.90;99.90;;;;;;5031418;28;20118;-69
2022/11/14 07:58:01;;;;;;;80.30;11.13;;;5.90;99.90;;;;;;5033744;28;20046;-69
2022/11/14 08:00:27;;;;;;;58.63;11.45;;;5.90;99.90;;;;;;5033074;28;20100;-69
2022/11/14 08:02:52;;;;;;;37.88;11.38;;;5.90;99.90;;;;;;5028324;28;20455;-69
2022/11/14 08:05:18;;;;;;;37.72;11.82;;;5.80;99.90;;;;;;5039084;28;20795;-70
2022/11/14 08:07:44;;;;;;;21.33;11.15;;;5.70;99.90;;;;;;5052151;28;24536;-70
2022/11/14 08:10:12;;;;;;;20.33;11.15;;;5.70;99.90;;;;;;5051238;28;20040;-69
2022/11/14 08:12:38;;;;;;;43.53;10.95;;;5.90;99.90;;;;;;5061104;28;20029;-69
2022/11/14 08:15:06;;;;;;;77.63;11.18;;;5.90;99.90;;;;;;5057486;28;20036;-70
2022/11/14 08:17:31;;;;;;;48.38;11.18;;;6.10;99.90;;;;;;5055011;28;20017;-69
2022/11/14 08:19:57;;;;;;;20.13;7.72;;;6.20;99.90;;;;;;5048158;28;20037;-70
2022/11/14 08:22:23;;;;;;;42.70;9.43;;;6.20;99.90;;;;;;5054467;28;20045;-69
2022/11/14 08:24:48;;;;;;;76.68;8.43;;;6.30;99.90;;;;;;5054462;28;20040;-69
2022/11/14 08:27:14;;;;;;;62.00;8.27;;;6.20;99.90;;;;;;5050451;28;20048;-70
2022/11/14 08:29:39;;;;;;;32.85;7.05;;;6.20;99.90;;;;;;5051837;28;20803;-70
2022/11/14 08:32:05;;;;;;;13.68;7.28;;;6.20;99.90;;;;;;5053151;28;20668;-70
2022/11/14 08:34:31;;;;;;;35.92;7.10;;;6.30;99.90;;;;;;5043916;28;20102;-69
2022/11/14 08:36:57;;;;;;;30.00;6.85;;;6.40;99.90;;;;;;5045251;28;20037;-70
2022/11/14 08:39:23;;;;;;;17.98;7.07;;;6.40;99.90;;;;;;5047784;28;20048;-70
2022/11/14 08:41:48;;;;;;;13.98;7.20;;;6.40;99.90;;;;;;5055066;28;20063;-70
2022/11/14 08:44:14;;;;;;;35.47;6.80;;;6.50;99.90;;;;;;5053821;28;20044;-70
2022/11/14 08:46:39;;;;;;;19.23;6.80;;;6.60;99.90;;;;;;5046619;28;20040;-69
2022/11/14 08:49:05;;;;;;;14.50;7.43;;;6.60;99.90;;;;;;5048625;28;20584;-70
2022/11/14 08:51:30;;;;;;;37.15;6.60;;;6.60;99.90;;;;;;5065567;28;20043;-70
2022/11/14 08:53:56;;;;;;;26.70;6.97;;;6.70;99.90;;;;;;5050183;28;20044;-70
2022/11/14 08:56:21;;;;;;;11.63;6.60;;;6.70;99.90;;;;;;5043793;28;20093;-70
2022/11/14 08:58:47;;;;;;;39.92;6.90;;;6.80;99.90;;;;;;5045349;28;20032;-70
2022/11/14 09:01:13;;;;;;;9.88;7.78;;;6.80;99.90;;;;;;5046717;28;20072;-70
2022/11/14 09:03:38;;;;;;;33.13;7.45;;;6.90;99.90;;;;;;5047410;28;20174;-69
2022/11/14 09:06:04;;;;;;;13.18;6.40;;;6.90;99.90;;;;;;5039544;28;20512;-69
2022/11/14 09:08:30;;;;;;;8.52;7.13;;;6.90;99.90;;;;;;5044021;28;20327;-70
2022/11/14 09:10:59;;;;;;;12.13;6.50;;;7.00;99.90;;;;;;5036133;28;20060;-70
2022/11/14 09:13:26;;;;;;;87.30;7.28;;;7.10;99.90;;;;;;5030872;28;20495;-70
2022/11/14 09:15:52;;;;;;;10.00;7.00;;;7.20;99.90;;;;;;5045500;28;20033;-70
2022/11/14 09:18:18;;;;;;;11.50;5.97;;;7.20;99.90;;;;;;5044701;28;20101;-70
2022/11/14 09:20:43;;;;;;;8.65;6.47;;;7.30;99.90;;;;;;5039917;28;20098;-70
2022/11/14 09:23:09;;;;;;;50.88;6.35;;;7.40;99.90;;;;;;5045524;28;20044;-70
2022/11/14 09:25:35;;;;;;;21.80;6.32;;;7.40;99.90;;;;;;5039085;28;20362;-70
2022/11/14 09:28:05;;;;;;;44.30;6.65;;;7.40;99.90;;;;;;5045090;28;20043;-70
2022/11/14 09:30:32;;;;;;;12.18;7.68;;;7.50;99.90;;;;;;5054877;28;20746;-70
2022/11/14 09:33:00;;;;;;;10.35;7.88;;;7.40;99.90;;;;;;5048828;28;20575;-70
2022/11/14 09:35:26;;;;;;;10.45;7.20;;;7.50;99.90;;;;;;5040819;28;20044;-70
2022/11/14 09:38:06;;;;;;;23.90;7.65;;;7.50;99.90;;;;;;5049038;28;20501;-70
2022/11/14 09:40:47;;;;;;;34.38;8.30;;;7.60;99.90;;;;;;5040992;28;20052;-70
2022/11/14 09:43:22;;;;;;;32.93;8.47;;;7.60;99.90;;;;;;5045460;28;20123;-70
2022/11/14 09:45:51;;;;;;;13.20;8.13;;;7.70;99.90;;;;;;5040027;28;20697;-70
2022/11/14 09:48:21;;;;;;;10.93;8.52;;;7.80;99.90;;;;;;5060547;28;20054;-70
2022/11/14 09:51:08;;;;;;;22.17;8.07;;;7.90;99.90;;;;;;5041671;28;20127;-70
2022/11/14 09:53:46;;;;;;;17.65;8.88;;;8.00;99.90;;;;;;5049315;28;20048;-70
2022/11/14 09:56:18;;;;;;;23.63;8.65;;;8.10;99.90;;;;;;5049815;28;20120;-70
2022/11/14 09:58:43;;;;;;;11.48;8.77;;;8.10;99.90;;;;;;5056982;28;20048;-70
2022/11/14 10:01:15;;;;;;;30.25;9.43;;;8.20;99.90;;;;;;5056415;28;20044;-70
2022/11/14 10:03:55;;;;;;;14.57;10.18;;;8.20;99.90;;;;;;5056562;28;20047;-70
2022/11/14 10:06:30;;;;;;;13.02;9.27;;;8.30;99.90;;;;;;5055656;28;20051;-70
2022/11/14 10:09:06;;;;;;;12.98;10.00;;;8.40;99.90;;;;;;5056836;28;20190;-70
2022/11/14 10:11:37;;;;;;;14.13;10.85;;;8.50;99.90;;;;;;5067874;28;20071;-70
2022/11/14 10:14:27;;;;;;;13.93;10.45;;;8.50;99.90;;;;;;5056747;28;20040;-70
2022/11/14 10:17:18;;;;;;;27.88;9.77;;;8.60;99.90;;;;;;5052239;28;20033;-70
2022/11/14 10:20:00;;;;;;;16.15;10.95;;;8.70;99.90;;;;;;5054263;28;20037;-70
2022/11/14 10:22:48;;;;;;;16.85;11.38;;;8.70;99.90;;;;;;5055447;28;20036;-70
2022/11/14 10:25:19;;;;;;;16.70;10.15;;;8.70;99.90;;;;;;5051103;28;20037;-70
2022/11/14 10:28:02;;;;;;;23.17;10.23;;;8.70;99.90;;;;;;5055911;28;20145;-70
2022/11/14 10:31:11;;;;;;;19.98;10.90;;;8.70;99.90;;;;;;5057708;28;20516;-70
2022/11/14 10:33:46;;;;;;;14.43;10.73;;;8.80;99.90;;;;;;5037830;28;20060;-70
2022/11/14 10:36:41;;;;;;;14.20;11.20;;;8.90;99.90;;;;;;5058983;28;20528;-70
2022/11/14 10:39:10;;;;;;;15.30;11.15;;;8.80;99.90;;;;;;5055022;28;20041;-70
2022/11/14 10:41:36;;;;;;;13.60;10.77;;;8.80;99.90;;;;;;5055035;28;20045;-70
2022/11/14 10:44:02;;;;;;;13.10;11.60;;;9.00;99.90;;;;;;5056063;28;20401;-69
2022/11/14 10:46:32;;;;;;;19.17;12.18;;;9.00;99.90;;;;;;5048979;28;20067;-70
2022/11/14 10:48:58;;;;;;;15.80;12.25;;;9.10;99.90;;;;;;5046828;28;20075;-70
2022/11/14 10:51:36;;;;;;;15.05;11.80;;;9.10;99.90;;;;;;5052568;28;20489;-70
2022/11/14 10:54:05;;;;;;;15.95;12.35;;;9.00;99.90;;;;;;5048147;28;20051;-69
2022/11/14 10:56:31;;;;;;;18.52;12.48;;;9.00;99.90;;;;;;5054856;28;20033;-70
2022/11/14 10:58:57;;;;;;;14.18;11.90;;;9.10;99.90;;;;;;5051983;28;20036;-70
2022/11/14 11:01:33;;;;;;;15.35;12.55;;;9.30;99.90;;;;;;5052856;28;20121;-70
2022/11/14 11:04:28;;;;;;;14.60;12.30;;;9.40;99.90;;;;;;5054004;28;20052;-70
2022/11/14 11:12:49;;;;;;;17.05;13.73;;;9.60;99.90;;;;;;5047953;28;20043;-70
2022/11/14 11:15:31;;;;;;;19.95;14.23;;;9.70;99.90;;;;;;5044125;28;20043;-69
2022/11/14 11:18:03;;;;;;;16.75;13.63;;;9.80;99.90;;;;;;5049441;28;20567;-69
2022/11/14 11:20:33;;;;;;;19.58;12.93;;;9.90;99.90;;;;;;5058069;28;20043;-70
2022/11/14 11:23:09;;;;;;;16.17;13.43;;;9.90;99.90;;;;;;5061073;28;20147;-70
2022/11/14 11:25:36;;;;;;;17.63;12.93;;;10.00;99.90;;;;;;5058795;28;20503;-70
2022/11/14 11:28:13;;;;;;;17.63;14.52;;;10.10;99.90;;;;;;5058917;28;20661;-70
2022/11/14 11:30:52;;;;;;;16.02;13.68;;;10.10;99.90;;;;;;5062896;28;20029;-69
2022/11/14 11:33:22;;;;;;;16.23;13.63;;;10.10;99.90;;;;;;5058324;28;20036;-69
2022/11/14 11:35:49;;;;;;;15.55;12.85;;;10.20;99.90;;;;;;5060380;28;21532;-70
2022/11/14 11:38:18;;;;;;;17.00;13.35;;;10.20;99.90;;;;;;5058868;28;20075;-69
2022/11/14 11:40:47;;;;;;;17.30;13.30;;;10.20;99.90;;;;;;5033488;28;20038;-70
2022/11/14 11:43:24;;;;;;;20.33;14.75;;;10.20;99.90;;;;;;5058007;28;20119;-70
2022/11/14 11:45:51;;;;;;;18.33;13.65;;;10.20;99.90;;;;;;5060689;28;20046;-70
2022/11/14 11:48:19;;;;;;;18.98;14.82;;;10.30;99.90;;;;;;5056105;28;20175;-70
2022/11/14 11:50:45;;;;;;;18.50;14.00;;;10.40;99.90;;;;;;5049433;28;20885;-70
2022/11/14 11:53:27;;;;;;;17.73;13.77;;;10.40;99.90;;;;;;5050984;28;20017;-70
2022/11/14 11:56:08;;;;;;;15.65;12.90;;;10.40;99.90;;;;;;5049382;28;20028;-70
2022/11/14 11:58:50;;;;;;;17.67;14.20;;;10.40;99.90;;;;;;5051750;28;20033;-70
2022/11/14 12:01:16;;;;;;;17.27;14.23;;;10.50;99.90;;;;;;5052741;28;20096;-70
2022/11/14 12:03:51;;;;;;;17.80;14.23;;;10.60;99.90;;;;;;5043953;28;20064;-70
2022/11/14 12:06:26;;;;;;;17.33;13.63;;;10.60;99.90;;;;;;5057862;28;20044;-69
2022/11/14 12:09:12;;;;;;;17.40;14.45;;;10.60;99.90;;;;;;5077405;28;20119;-69
2022/11/14 12:11:43;;;;;;;19.67;14.32;;;10.70;99.90;;;;;;5057855;28;20039;-70
2022/11/14 12:14:57;;;;;;;18.73;14.45;;;10.70;99.90;;;;;;5058008;28;20037;-69
2022/11/14 12:18:03;;;;;;;16.95;14.35;;;10.80;99.90;;;;;;5038813;28;20060;-70
2022/11/14 12:20:53;;;;;;;17.13;13.88;;;10.80;99.90;;;;;;5040390;28;20053;-68
2022/11/14 12:23:59;;;;;;;18.10;13.65;;;10.90;99.90;;;;;;5056377;28;20556;-70
2022/11/14 12:26:52;;;;;;;17.42;13.60;;;10.90;99.90;;;;;;5058455;28;20037;-69
2022/11/14 12:29:44;;;;;;;17.50;14.57;;;11.10;99.90;;;;;;5055145;28;20051;-70
2022/11/14 12:32:15;;;;;;;17.98;13.68;;;11.20;99.90;;;;;;5064751;28;20564;-69
2022/11/14 12:34:44;;;;;;;18.87;14.87;;;11.30;99.90;;;;;;5061978;28;20028;-70
2022/11/14 12:37:20;;;;;;;21.30;13.73;;;11.20;99.90;;;;;;5061097;28;20268;-70
2022/11/14 12:40:07;;;;;;;17.35;14.07;;;11.30;99.90;;;;;;5065845;28;20101;-70
2022/11/14 12:42:34;;;;;;;17.33;14.20;;;11.30;99.90;;;;;;5051508;28;20048;-69
2022/11/14 12:45:00;;;;;;;17.85;14.07;;;11.30;99.90;;;;;;5059340;28;20150;-70
2022/11/14 12:47:26;;;;;;;18.20;14.15;;;11.40;99.90;;;;;;5055665;28;20028;-69
2022/11/14 12:49:52;;;;;;;19.27;14.05;;;11.40;99.90;;;;;;5057283;28;20029;-70
2022/11/14 12:52:39;;;;;;;18.70;13.77;;;11.40;99.90;;;;;;5062796;28;20550;-70
2022/11/14 12:55:23;;;;;;;16.73;13.85;;;11.40;99.90;;;;;;5065148;28;20074;-70